Time;durP1;ratioP1;P1;durP2;ratioP2;P2;SDS_P1;SDS_P2;PMS_P1;PMS_P2;Temp;Humidity;BMP_temperature;BMP_pressure;BME280_temperature;BME280_humidity;BME280_pressure;Samples;Min_cycle;Max_cycle;Signal;HPM_P1;HPM_P2
2024/04/02 00:00:51;;;;;;;;;;;10.20;42.30;;;;;;5051759;28;19912;-71
2024/04/02 00:03:17;;;;;;;;;;;10.30;42.20;;;;;;5051657;28;19950;-71
2024/04/02 00:05:42;;;;;;;;;;;10.20;41.10;;;;;;5051704;28;19905;-71
2024/04/02 00:08:08;;;;;;;;;;;10.20;74.50;;;;;;5051345;28;20388;-71
2024/04/02 00:10:37;;;;;;;;;;;10.20;41.20;;;;;;5051706;28;20272;-71
2024/04/02 00:13:03;;;;;;;;;;;10.30;40.40;;;;;;5051626;28;19933;-71
2024/04/02 00:15:28;;;;;;;;;;;10.00;39.80;;;;;;5051494;28;20375;-71
2024/04/02 00:17:54;;;;;;;;;;;10.20;40.30;;;;;;5051220;28;20353;-71
2024/04/02 00:20:20;;;;;;;;;;;10.20;40.90;;;;;;5051489;28;19955;-71
2024/04/02 00:22:45;;;;;;;;;;;10.20;42.20;;;;;;5054528;28;19904;-70
2024/04/02 00:25:11;;;;;;;;;;;10.10;41.60;;;;;;5055261;28;20262;-71
2024/04/02 00:27:37;;;;;;;;;;;10.00;41.50;;;;;;5054961;28;20281;-71
2024/04/02 00:30:03;;;;;;;;;;;10.20;41.90;;;;;;5054970;28;19912;-71
2024/04/02 00:32:29;;;;;;;;;;;9.90;42.60;;;;;;5055050;28;19963;-71
2024/04/02 00:34:55;;;;;;;;;;;10.00;41.90;;;;;;5053707;28;19951;-71
2024/04/02 00:37:20;;;;;;;;;;;10.10;40.40;;;;;;5054782;28;19944;-71
2024/04/02 00:39:46;;;;;;;;;;;10.10;41.00;;;;;;5054915;28;20414;-71
2024/04/02 00:42:11;;;;;;;;;;;10.20;39.20;;;;;;5054865;28;19911;-70
2024/04/02 00:44:37;;;;;;;;;;;10.20;38.60;;;;;;5054731;28;19909;-71
2024/04/02 00:47:03;;;;;;;;;;;10.20;38.50;;;;;;5054735;28;19912;-71
2024/04/02 00:49:32;;;;;;;;;;;10.10;38.10;;;;;;5054437;28;20348;-71
2024/04/02 00:51:57;;;;;;;;;;;10.00;35.60;;;;;;5054684;28;19908;-71
2024/04/02 00:54:23;;;;;;;;;;;10.20;37.60;;;;;;5054558;28;19908;-71
2024/04/02 00:56:48;;;;;;;;;;;10.10;38.50;;;;;;5054604;28;19908;-70
2024/04/02 00:59:14;;;;;;;;;;;10.20;39.10;;;;;;5054310;28;19905;-70
2024/04/02 01:01:39;;;;;;;;;;;10.20;39.10;;;;;;5054476;28;19909;-70
2024/04/02 01:04:05;;;;;;;;;;;10.20;38.50;;;;;;5054495;28;19992;-70
2024/04/02 01:06:31;;;;;;;;;;;10.20;38.90;;;;;;5054453;28;19905;-70
2024/04/02 01:08:57;;;;;;;;;;;10.20;38.50;;;;;;5054168;28;19916;-70
2024/04/02 01:11:22;;;;;;;;;;;10.20;39.60;;;;;;5054298;28;19912;-71
2024/04/02 01:13:48;;;;;;;;;;;10.10;39.70;;;;;;5054298;28;19911;-70
2024/04/02 01:16:17;;;;;;;;;;;10.10;41.40;;;;;;5054057;28;19908;-70
2024/04/02 01:18:48;;;;;;;;;;;9.90;43.00;;;;;;5053970;28;20015;-71
2024/04/02 01:21:14;;;;;;;;;;;10.00;45.00;;;;;;5054249;28;19912;-70
2024/04/02 01:23:39;;;;;;;;;;;10.00;46.60;;;;;;5054140;28;19908;-70
2024/04/02 01:26:05;;;;;;;;;;;10.00;46.60;;;;;;5054079;28;19958;-70
2024/04/02 01:28:30;;;;;;;;;;;9.80;47.60;;;;;;5053863;28;19963;-71
2024/04/02 01:30:56;;;;;;;;;;;10.20;46.60;;;;;;5053982;28;19905;-70
2024/04/02 01:33:21;;;;;;;;;;;10.00;46.70;;;;;;5053478;28;19905;-70
2024/04/02 01:35:47;;;;;;;;;;;10.00;46.70;;;;;;5053807;28;19963;-70
2024/04/02 01:38:12;;;;;;;;;;;9.80;81.90;;;;;;5053774;28;19905;-71
2024/04/02 01:40:38;;;;;;;;;;;9.80;46.90;;;;;;5053751;28;20361;-71
2024/04/02 01:43:03;;;;;;;;;;;10.00;47.50;;;;;;5053715;28;19904;-71
2024/04/02 01:45:29;;;;;;;;;;;9.80;48.10;;;;;;5053622;28;19904;-70
2024/04/02 01:47:54;;;;;;;;;;;10.10;47.50;;;;;;5053493;28;19908;-72
2024/04/02 01:50:20;;;;;;;;;;;10.10;47.20;;;;;;5053563;28;20345;-71
2024/04/02 01:52:45;;;;;;;;;;;10.10;47.40;;;;;;5053611;28;19904;-71
2024/04/02 01:55:10;;;;;;;;;;;10.20;45.30;;;;;;5053514;28;19909;-71
2024/04/02 01:57:36;;;;;;;;;;;10.20;44.30;;;;;;5053298;28;20497;-72
2024/04/02 02:00:02;;;;;;;;;;;10.30;44.50;;;;;;5053351;28;19936;-71
2024/04/02 02:02:27;;;;;;;;;;;10.00;43.10;;;;;;5053633;28;19916;-72
2024/04/02 02:04:53;;;;;;;;;;;10.20;42.70;;;;;;5053390;28;20387;-72
2024/04/02 02:07:18;;;;;;;;;;;10.10;43.10;;;;;;5053086;28;19904;-71
2024/04/02 02:09:44;;;;;;;;;;;10.10;45.10;;;;;;5053211;28;19919;-71
2024/04/02 02:12:09;;;;;;;;;;;10.10;44.40;;;;;;5053154;28;20322;-70
2024/04/02 02:14:34;;;;;;;;;;;10.10;44.60;;;;;;5053111;28;19916;-72
2024/04/02 02:17:00;;;;;;;;;;;10.00;45.20;;;;;;5053007;28;19955;-71
2024/04/02 02:19:25;;;;;;;;;;;10.00;46.80;;;;;;5052785;28;19905;-71
2024/04/02 02:21:51;;;;;;;;;;;9.90;48.80;;;;;;5053061;28;19974;-71
2024/04/02 02:24:16;;;;;;;;;;;10.10;48.80;;;;;;5053024;28;20368;-71
2024/04/02 02:26:42;;;;;;;;;;;10.00;50.50;;;;;;5052945;28;19904;-71
2024/04/02 02:29:07;;;;;;;;;;;9.80;51.90;;;;;;5052542;28;19962;-70
2024/04/02 02:31:38;;;;;;;;;;;9.90;53.00;;;;;;5052851;28;19905;-70
2024/04/02 02:34:04;;;;;;;;;;;9.90;54.60;;;;;;5052791;28;19905;-70
2024/04/02 02:36:29;;;;;;;;;;;9.90;56.70;;;;;;5052734;28;19911;-70
2024/04/02 02:38:54;;;;;;;;;;;9.90;57.50;;;;;;5052433;28;19984;-70
2024/04/02 02:41:20;;;;;;;;;;;10.00;56.80;;;;;;5052650;28;19904;-71
2024/04/02 02:43:45;;;;;;;;;;;10.10;56.50;;;;;;5051984;28;19995;-69
2024/04/02 02:46:11;;;;;;;;;;;9.70;57.20;;;;;;5052622;28;19905;-69
2024/04/02 02:48:36;;;;;;;;;;;9.80;58.70;;;;;;5052214;28;19982;-69
2024/04/02 02:51:02;;;;;;;;;;;9.80;61.20;;;;;;5052557;28;19908;-70
2024/04/02 02:53:27;;;;;;;;;;;9.70;59.00;;;;;;5052479;28;19925;-69
2024/04/02 02:55:54;;;;;;;;;;;9.90;58.20;;;;;;5052428;28;19916;-69
2024/04/02 02:58:19;;;;;;;;;;;9.90;58.00;;;;;;5052061;28;19983;-70
2024/04/02 03:00:45;;;;;;;;;;;9.90;58.30;;;;;;5052419;28;19932;-70
2024/04/02 03:03:10;;;;;;;;;;;10.00;56.60;;;;;;5052329;28;19905;-69
2024/04/02 03:05:36;;;;;;;;;;;9.90;56.30;;;;;;5052326;28;19908;-69
2024/04/02 03:08:02;;;;;;;;;;;9.80;87.70;;;;;;5052085;28;20075;-69
2024/04/02 03:10:27;;;;;;;;;;;10.10;56.00;;;;;;5052274;28;19908;-70
2024/04/02 03:12:53;;;;;;;;;;;10.00;56.30;;;;;;5052204;28;20280;-69
2024/04/02 03:15:18;;;;;;;;;;;10.10;54.90;;;;;;5052161;28;19908;-69
2024/04/02 03:17:43;;;;;;;;;;;10.10;55.30;;;;;;5051868;28;20487;-69
2024/04/02 03:20:10;;;;;;;;;;;10.20;52.30;;;;;;5052124;28;19912;-69
2024/04/02 03:22:35;;;;;;;;;;;10.20;49.80;;;;;;5052096;28;19911;-69
2024/04/02 03:25:01;;;;;;;;;;;10.20;50.10;;;;;;5052085;28;20275;-69
2024/04/02 03:27:26;;;;;;;;;;;10.00;48.70;;;;;;5051798;28;19913;-70
2024/04/02 03:29:52;;;;;;;;;;;10.30;49.10;;;;;;5052058;28;19908;-69
2024/04/02 03:32:17;;;;;;;;;;;10.20;48.60;;;;;;5052115;28;19966;-70
2024/04/02 03:34:43;;;;;;;;;;;10.10;48.40;;;;;;5052031;28;19928;-70
2024/04/02 03:37:08;;;;;;;;;;;10.20;49.40;;;;;;5052043;28;19905;-70
2024/04/02 03:39:34;;;;;;;;;;;10.20;48.70;;;;;;5051692;28;19905;-70
2024/04/02 03:41:59;;;;;;;;;;;10.30;48.00;;;;;;5051990;28;19905;-70
2024/04/02 03:44:25;;;;;;;;;;;10.20;47.30;;;;;;5051937;28;19905;-70
2024/04/02 03:46:50;;;;;;;;;;;10.30;45.00;;;;;;5052082;28;20491;-70
2024/04/02 03:49:16;;;;;;;;;;;10.50;43.90;;;;;;5051647;28;20485;-70
2024/04/02 03:51:41;;;;;;;;;;;10.50;42.10;;;;;;5051867;28;19947;-71
2024/04/02 03:54:07;;;;;;;;;;;10.60;39.80;;;;;;5051797;28;19932;-70
2024/04/02 03:56:34;;;;;;;;;;;10.50;40.40;;;;;;5054678;28;19913;-71
2024/04/02 03:59:00;;;;;;;;;;;10.60;39.90;;;;;;5055441;28;20280;-70
2024/04/02 04:01:25;;;;;;;;;;;10.60;38.70;;;;;;5055735;28;19905;-70
2024/04/02 04:03:51;;;;;;;;;;;10.30;39.00;;;;;;5055703;28;20347;-70
2024/04/02 04:06:17;;;;;;;;;;;10.50;39.40;;;;;;5055664;28;20000;-70
2024/04/02 04:08:43;;;;;;;;;;;10.50;40.50;;;;;;5055260;28;19943;-70
2024/04/02 04:11:08;;;;;;;;;;;10.50;42.00;;;;;;5055567;28;19904;-70
2024/04/02 04:13:33;;;;;;;;;;;10.50;42.70;;;;;;5055431;28;19999;-70
2024/04/02 04:16:00;;;;;;;;;;;10.60;48.80;;;;;;5055348;28;19912;-70
2024/04/02 04:18:26;;;;;;;;;;;9.70;50.20;;;;;;5055085;28;19916;-70
2024/04/02 04:20:52;;;;;;;;;;;10.40;52.30;;;;;;5055392;28;19905;-70
2024/04/02 04:23:17;;;;;;;;;;;10.30;54.30;;;;;;5055274;28;20311;-70
2024/04/02 04:25:43;;;;;;;;;;;10.40;56.10;;;;;;5055265;28;19905;-70
2024/04/02 04:28:08;;;;;;;;;;;10.40;55.10;;;;;;5054925;28;20478;-70
2024/04/02 04:30:34;;;;;;;;;;;10.40;55.00;;;;;;5055123;28;20292;-70
2024/04/02 04:32:59;;;;;;;;;;;10.40;54.20;;;;;;5055114;28;19904;-71
2024/04/02 04:35:25;;;;;;;;;;;10.30;53.80;;;;;;5055074;28;19913;-70
2024/04/02 04:37:50;;;;;;;;;;;10.50;54.40;;;;;;5054763;28;19904;-70
2024/04/02 04:40:16;;;;;;;;;;;10.60;50.70;;;;;;5054959;28;19912;-71
2024/04/02 04:42:41;;;;;;;;;;;10.60;51.40;;;;;;5054922;28;19904;-70
2024/04/02 04:45:07;;;;;;;;;;;10.60;49.70;;;;;;5054920;28;19948;-70
2024/04/02 04:47:32;;;;;;;;;;;10.60;50.00;;;;;;5054779;28;19912;-70
2024/04/02 04:49:58;;;;;;;;;;;10.60;49.60;;;;;;5054758;28;19974;-70
2024/04/02 04:52:23;;;;;;;;;;;10.50;50.20;;;;;;5054801;28;19995;-70
2024/04/02 04:54:48;;;;;;;;;;;10.60;52.70;;;;;;5054567;28;19966;-69
2024/04/02 04:57:14;;;;;;;;;;;10.60;52.70;;;;;;5054387;28;19952;-69
2024/04/02 04:59:39;;;;;;;;;;;10.60;53.20;;;;;;5054616;28;20415;-69
2024/04/02 05:02:05;;;;;;;;;;;10.60;53.70;;;;;;5054665;28;19905;-69
2024/04/02 05:04:31;;;;;;;;;;;10.60;53.40;;;;;;5054536;28;19905;-69
2024/04/02 05:06:56;;;;;;;;;;;10.50;54.60;;;;;;5053658;28;20430;-70
2024/04/02 05:09:23;;;;;;;;;;;10.50;55.00;;;;;;5054192;28;19904;-69
2024/04/02 05:11:48;;;;;;;;;;;10.50;55.60;;;;;;5054408;28;19958;-70
2024/04/02 05:14:14;;;;;;;;;;;10.50;57.60;;;;;;5054383;28;19905;-70
2024/04/02 05:16:40;;;;;;;;;;;10.50;59.90;;;;;;5054228;28;19920;-70
2024/04/02 05:19:05;;;;;;;;;;;10.50;59.20;;;;;;5053939;28;20284;-70
2024/04/02 05:21:30;;;;;;;;;;;10.40;60.10;;;;;;5054186;28;19912;-69
2024/04/02 05:23:56;;;;;;;;;;;10.40;61.60;;;;;;5054141;28;19999;-70
2024/04/02 05:26:22;;;;;;;;;;;10.50;62.10;;;;;;5054093;28;20375;-70
2024/04/02 05:28:47;;;;;;;;;;;10.50;61.90;;;;;;5053741;28;19905;-70
2024/04/02 05:31:14;;;;;;;;;;;10.40;63.00;;;;;;5053987;28;20001;-68
2024/04/02 05:33:40;;;;;;;;;;;10.50;64.50;;;;;;5054001;28;19911;-68
2024/04/02 05:36:06;;;;;;;;;;;10.30;64.00;;;;;;5053852;28;19913;-69
2024/04/02 05:38:31;;;;;;;;;;;10.30;62.30;;;;;;5053481;28;19909;-68
2024/04/02 05:40:58;;;;;;;;;;;10.50;63.20;;;;;;5053678;28;20463;-68
2024/04/02 05:43:25;;;;;;;;;;;10.60;63.30;;;;;;5053803;28;19905;-69
2024/04/02 05:45:50;;;;;;;;;;;10.60;62.90;;;;;;5053710;28;19931;-69
2024/04/02 05:48:16;;;;;;;;;;;10.30;95.50;;;;;;5053326;28;19909;-69
2024/04/02 05:50:41;;;;;;;;;;;10.60;60.80;;;;;;5053598;28;20319;-70
2024/04/02 05:53:07;;;;;;;;;;;10.50;60.20;;;;;;5053712;28;20307;-69
2024/04/02 05:55:32;;;;;;;;;;;10.20;61.40;;;;;;5053348;28;19909;-69
2024/04/02 05:57:58;;;;;;;;;;;10.50;62.70;;;;;;5053107;28;19909;-69
2024/04/02 06:00:23;;;;;;;;;;;10.50;60.00;;;;;;5053442;28;19959;-69
2024/04/02 06:02:49;;;;;;;;;;;10.50;59.20;;;;;;5053317;28;20377;-69
2024/04/02 06:05:14;;;;;;;;;;;10.50;59.30;;;;;;5053290;28;19905;-69
2024/04/02 06:07:40;;;;;;;;;;;10.30;58.60;;;;;;5052972;28;20287;-69
2024/04/02 06:10:05;;;;;;;;;;;10.50;58.00;;;;;;5053156;28;19912;-69
2024/04/02 06:12:31;;;;;;;;;;;10.30;54.90;;;;;;5053192;28;20003;-69
2024/04/02 06:14:56;;;;;;;;;;;10.50;55.50;;;;;;5052998;28;19917;-69
2024/04/02 06:17:22;;;;;;;;;;;10.60;56.50;;;;;;5052732;28;19978;-70
2024/04/02 06:19:47;;;;;;;;;;;10.60;55.00;;;;;;5052994;28;19904;-69
2024/04/02 06:22:13;;;;;;;;;;;10.70;49.90;;;;;;5053081;28;19905;-69
2024/04/02 06:24:38;;;;;;;;;;;10.70;45.20;;;;;;5052927;28;20380;-69
2024/04/02 06:27:04;;;;;;;;;;;10.60;39.20;;;;;;5052966;28;19905;-70
2024/04/02 06:29:29;;;;;;;;;;;10.80;42.20;;;;;;5052567;28;20003;-69
2024/04/02 06:31:55;;;;;;;;;;;10.90;42.20;;;;;;5052812;28;19905;-70
2024/04/02 06:34:21;;;;;;;;;;;11.00;38.10;;;;;;5052650;28;19904;-69
2024/04/02 06:36:46;;;;;;;;;;;10.80;29.80;;;;;;5052662;28;19913;-70
2024/04/02 06:39:12;;;;;;;;;;;11.10;24.60;;;;;;5052378;28;20392;-70
2024/04/02 06:41:38;;;;;;;;;;;11.10;26.60;;;;;;5052676;28;20349;-70
2024/04/02 06:44:03;;;;;;;;;;;11.10;25.10;;;;;;5052687;28;19905;-70
2024/04/02 06:46:29;;;;;;;;;;;11.00;23.70;;;;;;5052562;28;19905;-70
2024/04/02 06:48:56;;;;;;;;;;;11.10;23.20;;;;;;5052159;28;20284;-69
2024/04/02 06:51:21;;;;;;;;;;;11.10;22.80;;;;;;5052415;28;19904;-69
2024/04/02 06:53:47;;;;;;;;;;;11.20;22.40;;;;;;5052383;28;20295;-69
2024/04/02 06:56:12;;;;;;;;;;;11.20;21.60;;;;;;5052416;28;19909;-69
2024/04/02 06:58:38;;;;;;;;;;;11.20;22.20;;;;;;5052063;28;19911;-68
2024/04/02 07:01:04;;;;;;;;;;;11.20;18.70;;;;;;5052335;28;20270;-69
2024/04/02 07:03:29;;;;;;;;;;;11.30;15.20;;;;;;5052324;28;20264;-69
2024/04/02 07:05:55;;;;;;;;;;;11.30;16.10;;;;;;5052220;28;19980;-69
2024/04/02 07:08:29;;;;;;;;;;;11.40;13.90;;;;;;5051857;28;20276;-68
2024/04/02 07:10:58;;;;;;;;;;;11.40;13.10;;;;;;5052199;28;20261;-68
2024/04/02 07:13:25;;;;;;;;;;;11.20;11.90;;;;;;5052317;28;19935;-70
2024/04/02 07:15:50;;;;;;;;;;;11.50;15.30;;;;;;5052184;28;19908;-69
2024/04/02 07:18:16;;;;;;;;;;;11.50;35.90;;;;;;5051765;28;20292;-69
2024/04/02 07:20:41;;;;;;;;;;;11.60;11.10;;;;;;5052036;28;19961;-68
2024/04/02 07:23:08;;;;;;;;;;;11.80;9.30;;;;;;5051893;28;19904;-68
2024/04/02 07:25:33;;;;;;;;;;;11.80;9.10;;;;;;5052066;28;19905;-68
2024/04/02 07:27:59;;;;;;;;;;;11.50;30.20;;;;;;5051735;28;19991;-69
2024/04/02 07:30:24;;;;;;;;;;;11.70;7.00;;;;;;5054402;28;20325;-69
2024/04/02 07:32:51;;;;;;;;;;;11.60;7.20;;;;;;5058566;28;19904;-68
2024/04/02 07:35:17;;;;;;;;;;;11.70;5.40;;;;;;5058511;28;19923;-69
2024/04/02 07:37:43;;;;;;;;;;;11.80;4.50;;;;;;5058723;28;19987;-69
2024/04/02 07:40:08;;;;;;;;;;;11.70;4.20;;;;;;5058523;28;20520;-69
2024/04/02 07:42:34;;;;;;;;;;;11.50;3.50;;;;;;5058553;28;19904;-70
2024/04/02 07:44:59;;;;;;;;;;;11.70;5.30;;;;;;5058523;28;19904;-69
2024/04/02 07:47:25;;;;;;;;;;;11.80;3.50;;;;;;5058170;28;19904;-70
2024/04/02 07:49:51;;;;;;;;;;;11.70;2.00;;;;;;5058359;28;20261;-69
2024/04/02 07:52:16;;;;;;;;;;;11.70;4.40;;;;;;5058461;28;19908;-70
2024/04/02 07:54:42;;;;;;;;;;;11.50;2.30;;;;;;5058381;28;19908;-69
2024/04/02 07:57:07;;;;;;;;;;;11.80;2.40;;;;;;5058789;28;19959;-69
2024/04/02 07:59:33;;;;;;;;;;;11.70;1.50;;;;;;5058163;28;19905;-69
2024/04/02 08:01:58;;;;;;;;;;;11.50;2.00;;;;;;5058355;28;20317;-69
2024/04/02 08:04:24;;;;;;;;;;;11.50;2.30;;;;;;5058363;28;19905;-69
2024/04/02 08:06:49;;;;;;;;;;;11.70;1.10;;;;;;5057005;28;19904;-68
2024/04/02 08:09:15;;;;;;;;;;;11.80;1.70;;;;;;5058073;28;20384;-70
2024/04/02 08:11:42;;;;;;;;;;;11.60;2.30;;;;;;5058367;28;19905;-70
2024/04/02 08:14:08;;;;;;;;;;;11.90;3.80;;;;;;5058245;28;20370;-69
2024/04/02 08:16:33;;;;;;;;;;;12.00;2.50;;;;;;5058084;28;19966;-69
2024/04/02 08:18:59;;;;;;;;;;;11.90;1.00;;;;;;5057969;28;20498;-69
2024/04/02 08:21:24;;;;;;;;;;;11.90;1.80;;;;;;5058401;28;19911;-69
2024/04/02 08:23:50;;;;;;;;;;;12.10;1.00;;;;;;5058276;28;19904;-69
2024/04/02 08:26:15;;;;;;;;;;;12.20;1.00;;;;;;5058311;28;19992;-69
2024/04/02 08:28:41;;;;;;;;;;;12.30;1.00;;;;;;5057922;28;19904;-69
2024/04/02 08:31:06;;;;;;;;;;;12.30;1.00;;;;;;5058141;28;19908;-69
2024/04/02 08:33:32;;;;;;;;;;;12.30;1.00;;;;;;5058189;28;19954;-68
2024/04/02 08:35:58;;;;;;;;;;;12.10;1.00;;;;;;5058073;28;19912;-70
2024/04/02 08:38:23;;;;;;;;;;;12.30;1.00;;;;;;5057895;28;20383;-69
2024/04/02 08:40:52;;;;;;;;;;;12.40;1.20;;;;;;5058101;28;19904;-69
2024/04/02 08:43:17;;;;;;;;;;;12.30;1.00;;;;;;5053718;28;19905;-69
2024/04/02 08:45:44;;;;;;;;;;;12.60;1.00;;;;;;5054906;28;19991;-69
2024/04/02 08:48:12;;;;;;;;;;;12.60;20.90;;;;;;5054608;28;20432;-69
2024/04/02 08:50:38;;;;;;;;;;;12.60;1.00;;;;;;5054822;28;19905;-69
2024/04/02 08:53:04;;;;;;;;;;;12.40;1.00;;;;;;5054921;28;19911;-69
2024/04/02 08:55:29;;;;;;;;;;;12.30;1.00;;;;;;5054702;28;19908;-69
2024/04/02 08:57:55;;;;;;;;;;;12.50;1.00;;;;;;5054429;28;20283;-69
2024/04/02 09:00:22;;;;;;;;;;;12.40;1.00;;;;;;5054542;28;19905;-69
2024/04/02 09:02:47;;;;;;;;;;;12.70;1.00;;;;;;5054520;28;20003;-69
2024/04/02 09:05:12;;;;;;;;;;;12.50;1.00;;;;;;5054443;28;19987;-69
2024/04/02 09:07:38;;;;;;;;;;;12.80;1.00;;;;;;5054306;28;19909;-69
2024/04/02 09:10:04;;;;;;;;;;;12.80;1.00;;;;;;5054418;28;19911;-69
2024/04/02 09:12:29;;;;;;;;;;;12.70;1.00;;;;;;5054423;28;19943;-69
2024/04/02 09:14:55;;;;;;;;;;;12.80;1.00;;;;;;5054274;28;20433;-68
2024/04/02 09:17:20;;;;;;;;;;;13.00;1.00;;;;;;5053976;28;19920;-69
2024/04/02 09:19:46;;;;;;;;;;;13.00;1.00;;;;;;5054169;28;19912;-69
2024/04/02 09:22:11;;;;;;;;;;;13.10;1.00;;;;;;5054193;28;19927;-69
2024/04/02 09:24:37;;;;;;;;;;;13.00;1.00;;;;;;5054152;28;19908;-69
2024/04/02 09:27:02;;;;;;;;;;;13.10;1.00;;;;;;5054164;28;20420;-70
2024/04/02 09:29:28;;;;;;;;;;;13.00;1.00;;;;;;5053777;28;19929;-69
2024/04/02 09:31:53;;;;;;;;;;;12.90;1.00;;;;;;5053990;28;19905;-69
2024/04/02 09:34:19;;;;;;;;;;;13.10;1.00;;;;;;5053786;28;19905;-69
2024/04/02 09:36:51;;;;;;;;;;;12.80;1.00;;;;;;5053837;28;20003;-69
2024/04/02 09:39:17;;;;;;;;;;;12.70;1.00;;;;;;5053620;28;20288;-69
2024/04/02 09:41:45;;;;;;;;;;;12.80;1.00;;;;;;5053900;28;19905;-69
2024/04/02 09:44:11;;;;;;;;;;;12.60;1.00;;;;;;5053722;28;19971;-68
2024/04/02 09:46:40;;;;;;;;;;;12.50;1.00;;;;;;5053835;28;19920;-69
2024/04/02 09:49:07;;;;;;;;;;;12.40;1.00;;;;;;5053576;28;20342;-69
2024/04/02 09:51:33;;;;;;;;;;;12.60;1.00;;;;;;5053657;28;19955;-69
2024/04/02 09:53:58;;;;;;;;;;;12.30;1.00;;;;;;5053211;28;19996;-69
2024/04/02 09:56:24;;;;;;;;;;;12.50;1.00;;;;;;5053533;28;19939;-70
2024/04/02 09:58:50;;;;;;;;;;;12.50;1.00;;;;;;5053128;28;19904;-70
2024/04/02 10:01:19;;;;;;;;;;;12.60;1.00;;;;;;5053405;28;19911;-69
2024/04/02 10:03:46;;;;;;;;;;;12.50;1.00;;;;;;5053406;28;19905;-69
2024/04/02 10:06:12;;;;;;;;;;;12.70;1.00;;;;;;5053332;28;19905;-69
2024/04/02 10:08:38;;;;;;;;;;;12.60;1.00;;;;;;5053031;28;19957;-69
2024/04/02 10:11:06;;;;;;;;;;;12.50;1.00;;;;;;5053190;28;20264;-69
2024/04/02 10:13:36;;;;;;;;;;;12.50;1.00;;;;;;5053201;28;19908;-69
2024/04/02 10:16:05;;;;;;;;;;;12.60;1.00;;;;;;5053044;28;19909;-69
2024/04/02 10:18:30;;;;;;;;;;;12.60;1.00;;;;;;5052776;28;19914;-69
2024/04/02 10:20:56;;;;;;;;;;;12.90;1.00;;;;;;5053008;28;20350;-69
2024/04/02 10:23:22;;;;;;;;;;;12.70;1.00;;;;;;5052933;28;19909;-70
2024/04/02 10:25:48;;;;;;;;;;;12.80;1.00;;;;;;5052920;28;20003;-70
2024/04/02 10:28:13;;;;;;;;;;;12.80;15.70;;;;;;5052608;28;20003;-69
2024/04/02 10:30:43;;;;;;;;;;;12.90;1.00;;;;;;5052902;28;19905;-69
2024/04/02 10:33:17;;;;;;;;;;;12.90;1.00;;;;;;5052717;28;19908;-69
2024/04/02 10:35:42;;;;;;;;;;;13.00;1.00;;;;;;5052815;28;19960;-69
2024/04/02 10:38:08;;;;;;;;;;;13.40;16.60;;;;;;5052457;28;19959;-69
2024/04/02 10:40:34;;;;;;;;;;;13.10;1.00;;;;;;5052716;28;19905;-69
2024/04/02 10:43:00;;;;;;;;;;;13.40;1.00;;;;;;5052845;28;19905;-69
2024/04/02 10:45:27;;;;;;;;;;;13.40;1.00;;;;;;5052731;28;20350;-69
2024/04/02 10:47:53;;;;;;;;;;;13.50;1.00;;;;;;5052288;28;19905;-68
2024/04/02 10:50:22;;;;;;;;;;;13.60;1.00;;;;;;5052503;28;19909;-68
2024/04/02 10:52:47;;;;;;;;;;;13.50;1.00;;;;;;5052463;28;19958;-68
2024/04/02 10:55:13;;;;;;;;;;;13.50;1.00;;;;;;5052425;28;20307;-69
2024/04/02 10:57:39;;;;;;;;;;;13.20;1.00;;;;;;5052210;28;19904;-68
2024/04/02 11:00:11;;;;;;;;;;;13.30;1.00;;;;;;5052275;28;19912;-69
2024/04/02 11:02:37;;;;;;;;;;;13.00;1.00;;;;;;5052261;28;19984;-69
2024/04/02 11:05:07;;;;;;;;;;;12.80;1.00;;;;;;5051668;28;20003;-68
2024/04/02 11:07:33;;;;;;;;;;;12.80;1.00;;;;;;5052043;28;19912;-70
2024/04/02 11:09:59;;;;;;;;;;;12.80;1.00;;;;;;5052232;28;19906;-69
2024/04/02 11:12:24;;;;;;;;;;;12.90;1.00;;;;;;5052270;28;19932;-69
2024/04/02 11:14:53;;;;;;;;;;;12.80;1.00;;;;;;5052066;28;19909;-69
2024/04/02 11:17:19;;;;;;;;;;;12.80;1.00;;;;;;5051835;28;19923;-69
2024/04/02 11:19:45;;;;;;;;;;;12.70;1.00;;;;;;5052181;28;19912;-69
2024/04/02 11:24:58;;;;;;;;;;;12.50;4.90;;;;;;5052472;28;19912;-69
2024/04/02 11:27:24;;;;;;;;;;;12.50;11.60;;;;;;5051884;28;19948;-69
2024/04/02 11:29:50;;;;;;;;;;;12.20;12.70;;;;;;5052317;28;20410;-69
2024/04/02 11:32:16;;;;;;;;;;;12.10;18.00;;;;;;5050612;28;19935;-70
2024/04/02 11:34:42;;;;;;;;;;;12.20;14.90;;;;;;5051860;28;19908;-69
2024/04/02 11:37:08;;;;;;;;;;;12.10;14.80;;;;;;5051936;28;20285;-69
2024/04/02 11:39:33;;;;;;;;;;;12.40;11.90;;;;;;5051596;28;19905;-68
2024/04/02 11:41:59;;;;;;;;;;;12.60;8.60;;;;;;5051848;28;19904;-69
2024/04/02 11:44:24;;;;;;;;;;;12.80;5.00;;;;;;5051955;28;19958;-69
2024/04/02 11:46:50;;;;;;;;;;;13.10;4.70;;;;;;5051831;28;19908;-69
2024/04/02 11:49:15;;;;;;;;;;;13.40;2.50;;;;;;5051480;28;19915;-70
2024/04/02 11:51:41;;;;;;;;;;;13.50;1.00;;;;;;5051878;28;19904;-69
2024/04/02 11:54:06;;;;;;;;;;;13.40;1.00;;;;;;5051799;28;19904;-70
2024/04/02 12:02:00;;;;;;;;;;;12.80;1.00;;;;;;5052544;28;19930;-71
2024/04/02 12:04:26;;;;;;;;;;;12.60;5.00;;;;;;5052654;28;19913;-71
2024/04/02 12:06:56;;;;;;;;;;;12.60;7.90;;;;;;5052658;28;19905;-72
2024/04/02 12:09:22;;;;;;;;;;;12.30;12.90;;;;;;5051945;28;19965;-72
2024/04/02 12:11:47;;;;;;;;;;;12.20;19.80;;;;;;5052200;28;19904;-71
2024/04/02 12:14:13;;;;;;;;;;;12.10;27.70;;;;;;5052087;28;19905;-72
2024/04/02 12:16:38;;;;;;;;;;;11.70;36.80;;;;;;5052967;28;19913;-72
2024/04/02 12:19:05;;;;;;;;;;;11.60;35.90;;;;;;5055191;28;19995;-71
2024/04/02 12:21:30;;;;;;;;;;;11.30;45.10;;;;;;5055386;28;19992;-71
2024/04/02 12:23:56;;;;;;;;;;;11.60;46.80;;;;;;5055365;28;20432;-71
2024/04/02 12:26:22;;;;;;;;;;;11.70;44.70;;;;;;5055287;28;19920;-72
2024/04/02 12:28:47;;;;;;;;;;;12.20;38.80;;;;;;5054967;28;19905;-72
2024/04/02 12:31:13;;;;;;;;;;;11.90;36.30;;;;;;5055454;28;19905;-71
2024/04/02 12:33:38;;;;;;;;;;;12.00;31.90;;;;;;5055099;28;19905;-71
2024/04/02 12:36:05;;;;;;;;;;;11.90;24.00;;;;;;5055055;28;20288;-71
2024/04/02 12:38:31;;;;;;;;;;;12.00;24.80;;;;;;5054742;28;20276;-71
2024/04/02 12:41:00;;;;;;;;;;;12.20;23.90;;;;;;5054995;28;19911;-71
2024/04/02 12:43:25;;;;;;;;;;;12.00;48.10;;;;;;5054949;28;19908;-72
2024/04/02 12:45:51;;;;;;;;;;;11.60;70.20;;;;;;5054848;28;19974;-72
2024/04/02 12:48:16;;;;;;;;;;;10.90;99.90;;;;;;5054566;28;19959;-70
2024/04/02 12:50:52;;;;;;;;;;;11.20;95.30;;;;;;5054844;28;20258;-70
2024/04/02 12:53:17;;;;;;;;;;;10.90;99.90;;;;;;5054889;28;19905;-71
2024/04/02 12:55:43;;;;;;;;;;;11.00;99.90;;;;;;5054634;28;19954;-70
2024/04/02 12:58:08;;;;;;;;;;;10.50;99.90;;;;;;5054395;28;19917;-70
2024/04/02 13:00:37;;;;;;;;;;;10.90;99.90;;;;;;5054577;28;19900;-70
2024/04/02 13:03:03;;;;;;;;;;;10.70;99.90;;;;;;5054769;28;19912;-70
2024/04/02 13:05:34;;;;;;;;;;;10.80;99.90;;;;;;5054504;28;19905;-71
2024/04/02 13:07:59;;;;;;;;;;;11.00;99.90;;;;;;5054179;28;19990;-71
2024/04/02 13:10:25;;;;;;;;;;;11.20;99.90;;;;;;5054391;28;20368;-71
2024/04/02 13:12:50;;;;;;;;;;;11.30;99.90;;;;;;5054389;28;19911;-71
2024/04/02 13:15:16;;;;;;;;;;;11.10;98.60;;;;;;5054283;28;19916;-72
2024/04/02 13:17:41;;;;;;;;;;;11.60;94.50;;;;;;5053969;28;19979;-72
2024/04/02 13:20:08;;;;;;;;;;;11.60;90.30;;;;;;5054222;28;19905;-72
2024/04/02 13:22:34;;;;;;;;;;;11.60;90.60;;;;;;5054290;28;19905;-73
2024/04/02 13:24:59;;;;;;;;;;;11.80;80.00;;;;;;5054188;28;19918;-73
2024/04/02 13:27:25;;;;;;;;;;;12.30;54.60;;;;;;5053668;28;19914;-72
2024/04/02 13:29:51;;;;;;;;;;;12.50;54.70;;;;;;5053467;28;19905;-73
2024/04/02 13:32:17;;;;;;;;;;;12.70;42.80;;;;;;5054173;28;20448;-72
2024/04/02 13:34:46;;;;;;;;;;;13.10;23.90;;;;;;5052688;28;20012;-72
2024/04/02 13:37:12;;;;;;;;;;;13.40;17.50;;;;;;5053911;28;19915;-72
2024/04/02 13:39:38;;;;;;;;;;;13.80;16.30;;;;;;5053707;28;20349;-73
2024/04/02 13:42:03;;;;;;;;;;;14.80;4.00;;;;;;5053897;28;19912;-73
2024/04/02 13:44:29;;;;;;;;;;;16.00;1.00;;;;;;5053700;28;19927;-73
2024/04/02 13:46:54;;;;;;;;;;;15.80;1.00;;;;;;5053780;28;19948;-73
2024/04/02 13:49:20;;;;;;;;;;;15.90;1.00;;;;;;5053388;28;20373;-73
2024/04/02 13:51:45;;;;;;;;;;;16.20;1.00;;;;;;5053690;28;19915;-73
2024/04/02 13:54:11;;;;;;;;;;;15.80;1.00;;;;;;5053567;28;19911;-73
2024/04/02 13:56:36;;;;;;;;;;;15.20;1.00;;;;;;5053436;28;20284;-73
2024/04/02 13:59:02;;;;;;;;;;;14.80;1.00;;;;;;5053466;28;19959;-73
2024/04/02 14:01:27;;;;;;;;;;;14.60;1.00;;;;;;5053477;28;19905;-73
2024/04/02 14:03:53;;;;;;;;;;;14.70;1.00;;;;;;5053422;28;19911;-73
2024/04/02 14:06:18;;;;;;;;;;;14.50;1.00;;;;;;5053390;28;19911;-72
2024/04/02 14:08:44;;;;;;;;;;;14.30;1.00;;;;;;5052922;28;19935;-72
2024/04/02 14:11:16;;;;;;;;;;;14.00;1.00;;;;;;5053316;28;19953;-72
2024/04/02 14:13:44;;;;;;;;;;;14.00;1.00;;;;;;5053151;28;19905;-72
2024/04/02 14:16:17;;;;;;;;;;;14.20;1.00;;;;;;5053002;28;19999;-72
2024/04/02 14:18:43;;;;;;;;;;;14.40;1.00;;;;;;5052825;28;19924;-72
2024/04/02 14:21:09;;;;;;;;;;;14.70;1.00;;;;;;5053191;28;19908;-72